Time;durP1;ratioP1;P1;durP2;ratioP2;P2;SDS_P1;SDS_P2;PMS_P1;PMS_P2;Temp;Humidity;BMP_temperature;BMP_pressure;BME280_temperature;BME280_humidity;BME280_pressure;Samples;Min_cycle;Max_cycle;Signal;HPM_P1;HPM_P2
2023/03/23 00:02:01;;;;;;;29.85;5.45;;;11.30;99.90;;;;;;5052486;28;20032;-63
2023/03/23 00:04:29;;;;;;;22.05;4.68;;;11.30;99.90;;;;;;5052062;28;20435;-62
2023/03/23 00:06:54;;;;;;;26.92;5.78;;;11.30;99.90;;;;;;5052052;28;20044;-62
2023/03/23 00:09:24;;;;;;;27.25;5.47;;;11.40;99.90;;;;;;5052594;28;20384;-63
2023/03/23 00:11:50;;;;;;;25.60;5.25;;;11.40;99.90;;;;;;5053221;28;20116;-62
2023/03/23 00:14:16;;;;;;;26.65;5.45;;;11.40;99.90;;;;;;5052274;28;20468;-62
2023/03/23 00:16:42;;;;;;;27.13;5.60;;;11.40;99.90;;;;;;5052143;28;20033;-62
2023/03/23 00:19:08;;;;;;;24.38;5.53;;;11.40;99.90;;;;;;5053774;28;20025;-62
2023/03/23 00:21:34;;;;;;;28.48;5.20;;;11.30;99.90;;;;;;5035411;28;20498;-62
2023/03/23 00:24:00;;;;;;;27.83;5.30;;;11.20;99.90;;;;;;5051926;28;20118;-62
2023/03/23 00:26:28;;;;;;;28.35;5.63;;;11.20;99.90;;;;;;5053111;28;20080;-62
2023/03/23 00:28:54;;;;;;;30.88;5.97;;;11.20;99.90;;;;;;5053639;28;20444;-62
2023/03/23 00:31:19;;;;;;;25.20;5.72;;;11.20;99.90;;;;;;5051889;28;20033;-62
2023/03/23 00:33:45;;;;;;;26.00;5.53;;;11.20;99.90;;;;;;5051523;28;20090;-62
2023/03/23 00:36:11;;;;;;;27.17;5.57;;;11.30;99.90;;;;;;5052818;28;20181;-62
2023/03/23 00:38:36;;;;;;;29.50;5.85;;;11.30;99.90;;;;;;5051734;28;20036;-62
2023/03/23 00:41:05;;;;;;;33.40;6.13;;;11.30;99.90;;;;;;5052921;28;20044;-62
2023/03/23 00:43:30;;;;;;;28.00;6.10;;;11.30;99.90;;;;;;5051701;28;20071;-62
2023/03/23 00:45:56;;;;;;;29.10;5.10;;;11.40;99.90;;;;;;5052140;28;20037;-61
2023/03/23 00:48:22;;;;;;;29.73;6.90;;;11.30;99.90;;;;;;5035310;28;20041;-62
2023/03/23 00:50:47;;;;;;;30.02;6.68;;;11.40;99.90;;;;;;5053302;28;20057;-61
2023/03/23 00:53:13;;;;;;;23.95;5.82;;;11.40;99.90;;;;;;5051537;28;20481;-62
2023/03/23 00:55:39;;;;;;;24.20;5.65;;;11.40;99.90;;;;;;5035002;28;20037;-62
2023/03/23 00:58:05;;;;;;;26.73;6.30;;;11.40;99.90;;;;;;5051647;28;20164;-61
2023/03/23 01:00:30;;;;;;;34.00;5.90;;;11.40;99.90;;;;;;5051529;28;20033;-62
2023/03/23 01:02:56;;;;;;;24.95;5.60;;;11.30;99.90;;;;;;5051701;28;20048;-61
2023/03/23 01:05:23;;;;;;;28.60;6.40;;;11.30;99.90;;;;;;5051721;28;20041;-62
2023/03/23 01:07:50;;;;;;;28.13;5.78;;;11.30;99.90;;;;;;5051375;28;20041;-62
2023/03/23 01:10:16;;;;;;;24.25;5.57;;;11.20;99.90;;;;;;5051480;28;20064;-62
2023/03/23 01:12:41;;;;;;;31.05;6.95;;;11.20;99.90;;;;;;5051559;28;20060;-61
2023/03/23 01:15:07;;;;;;;28.98;6.35;;;11.20;99.90;;;;;;5034990;28;20078;-61
2023/03/23 01:17:33;;;;;;;25.02;5.28;;;11.20;99.90;;;;;;5051698;28;20090;-61
2023/03/23 01:19:58;;;;;;;29.38;6.95;;;11.20;99.90;;;;;;5052464;28;20098;-62
2023/03/23 01:22:24;;;;;;;30.45;6.05;;;11.10;99.90;;;;;;5051782;28;20095;-62
2023/03/23 01:24:50;;;;;;;25.40;5.30;;;11.10;99.90;;;;;;5055054;28;20076;-62
2023/03/23 01:27:16;;;;;;;26.25;5.78;;;11.10;99.90;;;;;;5055049;28;20084;-62
2023/03/23 01:29:41;;;;;;;33.03;6.22;;;11.10;99.90;;;;;;5056748;28;20433;-65
2023/03/23 01:32:07;;;;;;;29.02;6.30;;;11.10;99.90;;;;;;5038411;28;20095;-63
2023/03/23 01:34:33;;;;;;;29.63;6.18;;;11.10;99.90;;;;;;5054761;28;20033;-62
2023/03/23 01:36:59;;;;;;;26.02;5.60;;;11.10;99.90;;;;;;5038345;28;20040;-63
2023/03/23 01:39:25;;;;;;;26.05;5.38;;;11.10;99.90;;;;;;5038929;28;20029;-63
2023/03/23 01:41:51;;;;;;;24.55;5.63;;;11.00;99.90;;;;;;5054817;28;20069;-63
2023/03/23 01:44:20;;;;;;;26.73;5.22;;;11.00;99.90;;;;;;5039071;28;20045;-63
2023/03/23 01:46:55;;;;;;;26.98;5.40;;;10.90;99.90;;;;;;5039336;28;20033;-62
2023/03/23 01:49:21;;;;;;;26.98;5.88;;;10.80;99.90;;;;;;5037943;28;20040;-60
2023/03/23 01:51:47;;;;;;;26.08;5.28;;;10.80;99.90;;;;;;5054491;28;20033;-62
2023/03/23 01:54:13;;;;;;;27.20;5.90;;;10.80;99.90;;;;;;5037886;28;20037;-62
2023/03/23 01:56:40;;;;;;;27.25;5.10;;;10.80;99.90;;;;;;5056040;28;20472;-62
2023/03/23 01:59:07;;;;;;;24.73;5.82;;;10.70;99.90;;;;;;5038128;28;20112;-62
2023/03/23 02:01:36;;;;;;;27.73;5.82;;;10.60;99.90;;;;;;5054254;28;20508;-61
2023/03/23 02:04:02;;;;;;;25.27;5.75;;;10.60;99.90;;;;;;5054353;28;20648;-61
2023/03/23 02:06:28;;;;;;;30.55;5.57;;;10.60;99.90;;;;;;5038123;28;20448;-62
2023/03/23 02:09:08;;;;;;;27.77;5.38;;;10.50;99.90;;;;;;5054819;28;20127;-62
2023/03/23 02:11:34;;;;;;;23.77;5.85;;;10.50;99.90;;;;;;5037519;28;20128;-62
2023/03/23 02:14:01;;;;;;;25.00;5.53;;;10.50;99.90;;;;;;5037492;28;20094;-61
2023/03/23 02:16:27;;;;;;;30.38;5.28;;;10.40;99.90;;;;;;5054145;28;20132;-62
2023/03/23 02:18:53;;;;;;;30.65;6.20;;;10.40;99.90;;;;;;5055309;28;20511;-61
2023/03/23 02:21:18;;;;;;;31.42;5.95;;;10.40;99.90;;;;;;5054046;28;20085;-62
2023/03/23 02:23:44;;;;;;;30.33;6.60;;;10.40;99.90;;;;;;5037196;28;20041;-61
2023/03/23 02:26:12;;;;;;;28.20;6.18;;;10.30;99.90;;;;;;5053770;28;20057;-61
2023/03/23 02:28:37;;;;;;;26.15;5.85;;;10.30;99.90;;;;;;5053716;28;20530;-61
2023/03/23 02:31:03;;;;;;;31.95;6.18;;;10.20;99.90;;;;;;5055604;28;20495;-62
2023/03/23 02:33:29;;;;;;;35.95;5.78;;;10.20;99.90;;;;;;5055258;28;20025;-62
2023/03/23 02:35:54;;;;;;;37.30;6.90;;;10.20;99.90;;;;;;5052882;28;20087;-62
2023/03/23 02:38:20;;;;;;;28.45;5.68;;;10.20;99.90;;;;;;5053650;28;20039;-62
2023/03/23 02:40:46;;;;;;;23.40;4.75;;;10.20;99.90;;;;;;5053883;28;20033;-61
2023/03/23 02:43:12;;;;;;;31.70;5.93;;;10.10;99.90;;;;;;5053882;28;20074;-62
2023/03/23 02:45:37;;;;;;;31.33;5.55;;;10.10;99.90;;;;;;5036801;28;20083;-64
2023/03/23 02:48:03;;;;;;;30.65;5.97;;;10.10;99.90;;;;;;5054912;28;20072;-62
2023/03/23 02:50:29;;;;;;;31.15;5.93;;;10.00;99.90;;;;;;5036880;28;20047;-62
2023/03/23 02:52:54;;;;;;;33.08;6.38;;;10.00;99.90;;;;;;5053537;28;20553;-62
2023/03/23 02:55:22;;;;;;;33.55;6.05;;;10.00;99.90;;;;;;5037303;28;20040;-64
2023/03/23 02:57:48;;;;;;;35.72;6.57;;;10.00;99.90;;;;;;5037258;28;20033;-63
2023/03/23 03:00:15;;;;;;;33.00;5.78;;;10.00;99.90;;;;;;5054003;28;20083;-61
2023/03/23 03:02:40;;;;;;;35.95;5.85;;;10.00;99.90;;;;;;5054432;28;20033;-62
2023/03/23 03:05:06;;;;;;;26.35;6.20;;;10.00;99.90;;;;;;5055068;28;20057;-63
2023/03/23 03:07:35;;;;;;;30.45;6.40;;;10.00;99.90;;;;;;5053405;28;20072;-62
2023/03/23 03:10:02;;;;;;;28.83;5.65;;;10.00;99.90;;;;;;5053129;28;20060;-62
2023/03/23 03:12:28;;;;;;;35.25;6.45;;;9.90;99.90;;;;;;5036637;28;20037;-63
2023/03/23 03:14:56;;;;;;;30.25;5.95;;;9.90;99.90;;;;;;5053357;28;20465;-62
2023/03/23 03:17:22;;;;;;;31.30;7.10;;;9.90;99.90;;;;;;5053318;28;20032;-61
2023/03/23 03:19:48;;;;;;;35.05;6.85;;;9.90;99.90;;;;;;5054314;28;20031;-62
2023/03/23 03:22:13;;;;;;;28.77;5.75;;;9.90;99.90;;;;;;5052979;28;20108;-62
2023/03/23 03:24:40;;;;;;;29.50;5.75;;;9.80;99.90;;;;;;5036190;28;20037;-62
2023/03/23 03:27:06;;;;;;;35.25;5.85;;;9.80;99.90;;;;;;5052853;28;20404;-62
2023/03/23 03:29:41;;;;;;;32.58;7.50;;;9.80;99.90;;;;;;5052715;28;20060;-62
2023/03/23 03:32:07;;;;;;;36.88;6.78;;;9.80;99.90;;;;;;5052611;28;20041;-62
2023/03/23 03:34:33;;;;;;;31.67;5.57;;;9.80;99.90;;;;;;5036101;28;20037;-62
2023/03/23 03:36:59;;;;;;;37.05;7.10;;;9.80;99.90;;;;;;5052829;28;20139;-62
2023/03/23 03:39:25;;;;;;;26.02;5.72;;;9.70;99.90;;;;;;5052412;28;20033;-62
2023/03/23 03:41:51;;;;;;;30.50;6.15;;;9.80;99.90;;;;;;5052337;28;20040;-62
2023/03/23 03:44:17;;;;;;;33.42;6.47;;;9.70;99.90;;;;;;5052279;28;20104;-62
2023/03/23 03:46:42;;;;;;;26.55;5.07;;;9.70;99.90;;;;;;5035513;28;20446;-62
2023/03/23 03:49:08;;;;;;;35.00;6.22;;;9.70;99.90;;;;;;5035859;28;20041;-63
2023/03/23 03:51:37;;;;;;;26.73;5.85;;;9.60;99.90;;;;;;5052248;28;20048;-63
2023/03/23 03:54:04;;;;;;;27.63;6.15;;;9.60;99.90;;;;;;5052706;28;20029;-62
2023/03/23 03:56:40;;;;;;;29.83;5.55;;;9.60;99.90;;;;;;5035614;28;20476;-62
2023/03/23 03:59:25;;;;;;;36.05;5.50;;;9.60;99.90;;;;;;5054026;28;20059;-63
2023/03/23 04:02:16;;;;;;;27.10;5.53;;;9.60;99.90;;;;;;5053936;28;20068;-63
2023/03/23 04:04:43;;;;;;;28.17;5.45;;;9.60;99.90;;;;;;5053909;28;20139;-62
2023/03/23 04:07:10;;;;;;;29.27;5.25;;;9.60;99.90;;;;;;5054062;28;20067;-62
2023/03/23 04:09:38;;;;;;;31.65;5.60;;;9.50;99.90;;;;;;5052345;28;20055;-63
2023/03/23 04:12:03;;;;;;;32.65;5.55;;;9.60;99.90;;;;;;5052073;28;20041;-62
2023/03/23 04:14:47;;;;;;;30.45;6.20;;;9.60;99.90;;;;;;5052636;28;20052;-62
2023/03/23 04:17:14;;;;;;;27.50;5.68;;;9.60;99.90;;;;;;5052648;28;20033;-62
2023/03/23 04:19:41;;;;;;;27.40;5.90;;;9.60;99.90;;;;;;5052289;28;20119;-63
2023/03/23 04:22:06;;;;;;;31.95;6.20;;;9.50;99.90;;;;;;5052138;28;20382;-62
2023/03/23 04:24:35;;;;;;;33.67;5.57;;;9.50;99.90;;;;;;5036070;28;20044;-62
2023/03/23 04:27:04;;;;;;;36.22;5.55;;;9.60;99.90;;;;;;5030651;28;20097;-62
2023/03/23 04:29:33;;;;;;;31.48;6.20;;;9.60;99.90;;;;;;5032371;28;20534;-62
2023/03/23 04:32:40;;;;;;;31.17;5.15;;;9.50;99.90;;;;;;5031777;28;20095;-62
2023/03/23 04:35:06;;;;;;;28.50;6.05;;;9.50;99.90;;;;;;5033843;28;20033;-63
2023/03/23 04:37:39;;;;;;;30.13;6.07;;;9.60;99.90;;;;;;5031940;28;20029;-62
2023/03/23 04:40:08;;;;;;;28.98;6.03;;;9.50;99.90;;;;;;5032411;28;20037;-62
2023/03/23 04:42:36;;;;;;;30.50;5.60;;;9.50;99.90;;;;;;5015286;28;20034;-63
2023/03/23 04:45:28;;;;;;;25.42;5.60;;;9.50;99.90;;;;;;5033810;28;20057;-63
2023/03/23 04:48:01;;;;;;;29.17;6.38;;;9.50;99.90;;;;;;5015539;28;20065;-63
2023/03/23 04:50:37;;;;;;;34.55;5.82;;;9.50;99.90;;;;;;5016950;28;20047;-62
2023/03/23 04:53:13;;;;;;;31.67;5.88;;;9.50;99.90;;;;;;5032243;28;20087;-63
2023/03/23 04:55:40;;;;;;;27.70;5.93;;;9.40;99.90;;;;;;5032221;28;20420;-63
2023/03/23 04:58:09;;;;;;;39.40;7.38;;;9.40;99.90;;;;;;5031727;28;20443;-63
2023/03/23 05:00:49;;;;;;;42.10;7.83;;;9.40;99.90;;;;;;5035568;28;20124;-62
2023/03/23 05:03:16;;;;;;;32.80;7.03;;;9.40;99.90;;;;;;5035899;28;20385;-62
2023/03/23 05:05:43;;;;;;;36.78;6.65;;;9.40;99.90;;;;;;5019400;28;20098;-62
2023/03/23 05:08:08;;;;;;;33.30;6.20;;;9.40;99.90;;;;;;5018970;28;20037;-63
2023/03/23 05:10:37;;;;;;;38.22;6.63;;;9.40;99.90;;;;;;5019829;28;20129;-63
2023/03/23 05:13:07;;;;;;;29.42;6.63;;;9.40;99.90;;;;;;5035972;28;20071;-62
2023/03/23 05:15:34;;;;;;;40.28;6.35;;;9.40;99.90;;;;;;5035679;28;20507;-63
2023/03/23 05:18:01;;;;;;;37.72;6.07;;;9.40;99.90;;;;;;5036109;28;20045;-63
2023/03/23 05:20:27;;;;;;;36.35;6.28;;;9.40;99.90;;;;;;5036767;28;20381;-62
2023/03/23 05:22:58;;;;;;;34.63;5.97;;;9.40;99.90;;;;;;5019846;28;20041;-63
2023/03/23 05:25:29;;;;;;;37.47;7.13;;;9.40;99.90;;;;;;5019260;28;20061;-64
2023/03/23 05:28:03;;;;;;;40.53;7.10;;;9.40;99.90;;;;;;5035700;28;20502;-63
2023/03/23 05:30:48;;;;;;;34.75;5.90;;;9.40;99.90;;;;;;5035175;28;20060;-62
2023/03/23 05:33:15;;;;;;;34.75;6.78;;;9.40;99.90;;;;;;5018747;28;20042;-63
2023/03/23 05:36:00;;;;;;;37.25;6.53;;;9.40;99.90;;;;;;5037215;28;20060;-62
2023/03/23 05:38:32;;;;;;;32.72;7.47;;;9.40;99.90;;;;;;5019954;28;20037;-62
2023/03/23 05:41:00;;;;;;;35.17;6.97;;;9.40;99.90;;;;;;5018621;28;20038;-63
2023/03/23 05:43:31;;;;;;;49.45;9.73;;;9.30;99.90;;;;;;5035299;28;20120;-62
2023/03/23 05:46:19;;;;;;;32.97;7.00;;;9.30;99.90;;;;;;5035508;28;20045;-63
2023/03/23 05:48:47;;;;;;;46.53;7.85;;;9.30;99.90;;;;;;5034958;28;20061;-63
2023/03/23 05:51:16;;;;;;;40.00;6.82;;;9.30;99.90;;;;;;5034921;28;20029;-63
2023/03/23 05:53:43;;;;;;;31.08;6.32;;;9.30;99.90;;;;;;5034766;28;20037;-63
2023/03/23 05:56:12;;;;;;;33.03;6.07;;;9.20;99.90;;;;;;5034745;28;20037;-63
2023/03/23 05:58:50;;;;;;;40.97;7.55;;;9.20;99.90;;;;;;5034591;28;20091;-61
2023/03/23 06:01:16;;;;;;;32.17;5.35;;;9.20;99.90;;;;;;5034983;28;20041;-62
2023/03/23 06:03:41;;;;;;;35.08;6.53;;;9.20;99.90;;;;;;5034569;28;20063;-62
2023/03/23 06:06:18;;;;;;;29.83;6.03;;;9.20;99.90;;;;;;5034754;28;20049;-61
2023/03/23 06:09:04;;;;;;;28.23;5.22;;;9.20;99.90;;;;;;5035082;28;20033;-62
2023/03/23 06:11:42;;;;;;;31.50;6.43;;;9.20;99.90;;;;;;5019929;28;20042;-62
2023/03/23 06:14:31;;;;;;;35.78;5.78;;;9.10;99.90;;;;;;5035763;28;20054;-61
2023/03/23 06:16:57;;;;;;;28.00;5.97;;;9.20;99.90;;;;;;5018069;28;20044;-62
2023/03/23 06:19:23;;;;;;;31.98;5.88;;;9.10;99.90;;;;;;5034653;28;20037;-62
2023/03/23 06:21:59;;;;;;;33.23;6.27;;;9.20;99.90;;;;;;5036031;28;20069;-61
2023/03/23 06:24:44;;;;;;;33.67;6.43;;;9.20;99.90;;;;;;5034391;28;20128;-62
2023/03/23 06:27:11;;;;;;;25.88;5.15;;;9.20;99.90;;;;;;5018048;28;20057;-62
2023/03/23 06:29:37;;;;;;;32.72;4.95;;;9.20;99.90;;;;;;5035808;28;20042;-62
2023/03/23 06:32:03;;;;;;;30.48;5.90;;;9.20;99.90;;;;;;5017889;28;20508;-62
2023/03/23 06:34:29;;;;;;;32.25;5.53;;;9.30;99.90;;;;;;5034471;28;20041;-62
2023/03/23 06:37:33;;;;;;;27.88;4.95;;;9.40;99.90;;;;;;5034241;28;20101;-61
2023/03/23 06:40:12;;;;;;;29.10;4.93;;;9.40;99.90;;;;;;5034362;28;20046;-62
2023/03/23 06:42:39;;;;;;;25.23;4.57;;;9.50;99.90;;;;;;5034438;28;20041;-62
2023/03/23 06:45:28;;;;;;;34.70;5.05;;;9.50;99.90;;;;;;5033938;28;20053;-61
2023/03/23 06:48:13;;;;;;;32.28;5.80;;;9.40;99.90;;;;;;5020364;28;20396;-62
2023/03/23 06:50:39;;;;;;;32.38;5.60;;;9.50;99.90;;;;;;5034190;28;20053;-61
2023/03/23 06:53:06;;;;;;;29.65;5.38;;;9.40;99.90;;;;;;5033903;28;20484;-62
2023/03/23 06:55:32;;;;;;;30.92;5.35;;;9.40;99.90;;;;;;5017208;28;20076;-62
2023/03/23 06:57:59;;;;;;;33.03;6.72;;;9.50;99.90;;;;;;5033962;28;20025;-62
2023/03/23 07:00:25;;;;;;;27.23;5.60;;;9.50;99.90;;;;;;5033764;28;20038;-62
2023/03/23 07:02:51;;;;;;;34.60;6.50;;;9.50;99.90;;;;;;5033437;28;20381;-62
2023/03/23 07:05:17;;;;;;;35.55;6.20;;;9.50;99.90;;;;;;5033877;28;20473;-61
2023/03/23 07:07:43;;;;;;;34.25;6.95;;;9.60;99.90;;;;;;5017139;28;20045;-62
2023/03/23 07:10:24;;;;;;;38.22;6.80;;;9.60;99.90;;;;;;5019392;28;20152;-61
2023/03/23 07:12:51;;;;;;;40.92;6.72;;;9.60;99.90;;;;;;5016906;28;20041;-62
2023/03/23 07:15:17;;;;;;;37.67;6.25;;;9.70;99.90;;;;;;5033244;28;20029;-61
2023/03/23 07:17:47;;;;;;;35.13;6.55;;;9.70;99.90;;;;;;5018215;28;20060;-61
2023/03/23 07:20:26;;;;;;;42.17;6.47;;;9.80;99.90;;;;;;5018563;28;20557;-62
2023/03/23 07:22:52;;;;;;;38.33;8.70;;;9.80;99.90;;;;;;5032676;28;20052;-62
2023/03/23 07:25:37;;;;;;;32.58;6.53;;;9.80;99.90;;;;;;5033489;28;20111;-62
2023/03/23 07:28:03;;;;;;;27.63;5.30;;;9.90;99.90;;;;;;5033364;28;20046;-62
2023/03/23 07:30:29;;;;;;;39.92;7.60;;;10.00;99.90;;;;;;5034407;28;20044;-62
2023/03/23 07:32:55;;;;;;;33.55;6.70;;;10.10;99.90;;;;;;5032877;28;20128;-62
2023/03/23 07:35:21;;;;;;;34.90;6.82;;;10.20;99.90;;;;;;5033333;28;20509;-62
2023/03/23 07:37:58;;;;;;;42.38;7.72;;;10.30;99.90;;;;;;5017244;28;20032;-63
2023/03/23 07:40:24;;;;;;;33.70;6.50;;;10.40;99.90;;;;;;5015326;28;20041;-62
2023/03/23 07:42:52;;;;;;;32.72;7.03;;;10.40;99.90;;;;;;5030757;28;20144;-62
2023/03/23 07:45:26;;;;;;;40.60;7.13;;;10.50;99.90;;;;;;5015907;28;20071;-62
2023/03/23 07:47:53;;;;;;;31.10;6.07;;;10.60;99.90;;;;;;5014943;28;20037;-63
2023/03/23 07:50:22;;;;;;;33.40;7.38;;;10.70;99.90;;;;;;5032926;28;20451;-63
2023/03/23 07:52:47;;;;;;;35.45;6.40;;;10.80;99.90;;;;;;5031298;28;20099;-63
2023/03/23 07:55:19;;;;;;;37.58;6.40;;;10.90;99.90;;;;;;5031166;28;20087;-63
2023/03/23 07:57:54;;;;;;;29.27;5.97;;;10.90;99.90;;;;;;5016256;28;20048;-62
2023/03/23 08:00:20;;;;;;;32.38;6.30;;;11.00;99.90;;;;;;5030372;28;20029;-62
2023/03/23 08:02:46;;;;;;;58.92;25.17;;;11.00;99.90;;;;;;5015025;28;20489;-62
2023/03/23 08:05:33;;;;;;;;;;;10.90;99.90;;;;;;5032991;28;20099;-63
2023/03/23 08:08:31;;;;;;;32.40;7.07;;;10.90;99.90;;;;;;5020606;28;19917;-63
2023/03/23 08:11:29;;;;;;;33.95;6.43;;;10.80;99.90;;;;;;5031307;28;20499;-62
2023/03/23 08:14:13;;;;;;;36.10;6.43;;;10.90;99.90;;;;;;5032145;28;20123;-63
2023/03/23 08:17:00;;;;;;;;;;;10.90;99.90;;;;;;5033183;28;20090;-62
2023/03/23 08:19:36;;;;;;;24.80;5.35;;;11.00;99.90;;;;;;5033930;28;20426;-63
2023/03/23 08:22:38;;;;;;;30.80;6.30;;;11.00;99.90;;;;;;5019742;28;20084;-62
2023/03/23 08:25:25;;;;;;;31.30;5.65;;;11.10;99.90;;;;;;5031286;28;20403;-62
2023/03/23 08:28:14;;;;;;;33.83;7.05;;;11.10;99.90;;;;;;5033406;28;20430;-62
2023/03/23 08:30:58;;;;;;;25.77;5.65;;;11.10;99.90;;;;;;5033525;28;20103;-63
2023/03/23 08:33:34;;;;;;;30.15;6.28;;;11.20;99.90;;;;;;5016365;28;20029;-63
2023/03/23 08:36:19;;;;;;;33.35;6.88;;;11.20;99.90;;;;;;5032746;28;20137;-63
2023/03/23 08:39:00;;;;;;;40.80;6.35;;;11.20;99.90;;;;;;5032090;28;20041;-63
2023/03/23 08:41:37;;;;;;;33.10;7.07;;;11.30;99.90;;;;;;5034044;28;20087;-63
2023/03/23 08:44:15;;;;;;;31.02;6.18;;;11.40;99.90;;;;;;5031974;28;20128;-63
2023/03/23 08:46:56;;;;;;;25.98;5.82;;;11.50;99.90;;;;;;5032105;28;20041;-63
2023/03/23 08:49:52;;;;;;;29.42;5.90;;;11.70;99.90;;;;;;5032498;28;20420;-63
2023/03/23 08:52:37;;;;;;;29.58;6.28;;;11.80;99.90;;;;;;5033818;28;20434;-63
2023/03/23 08:55:32;;;;;;;28.98;5.53;;;11.80;99.90;;;;;;5032795;28;20049;-63
2023/03/23 08:58:17;;;;;;;24.73;5.50;;;11.90;99.90;;;;;;5033708;28;20138;-63
2023/03/23 09:00:55;;;;;;;23.80;4.88;;;12.10;99.90;;;;;;5032444;28;20125;-63
2023/03/23 09:03:46;;;;;;;29.35;5.10;;;12.20;99.90;;;;;;5032388;28;20498;-62
2023/03/23 09:06:30;;;;;;;23.83;5.53;;;12.40;99.90;;;;;;5033393;28;20052;-63
2023/03/23 09:08:56;;;;;;;31.15;6.20;;;12.40;99.90;;;;;;5033626;28;20033;-63
2023/03/23 09:11:22;;;;;;;24.75;5.32;;;12.40;99.90;;;;;;5032051;28;20457;-62
2023/03/23 09:13:47;;;;;;;28.65;6.00;;;12.40;99.90;;;;;;5033061;28;20041;-62
2023/03/23 09:16:13;;;;;;;24.67;5.25;;;12.40;99.90;;;;;;5033414;28;20057;-61
2023/03/23 09:18:39;;;;;;;28.02;5.72;;;12.50;99.90;;;;;;5033033;28;20057;-62
2023/03/23 09:21:06;;;;;;;23.67;5.93;;;12.60;99.90;;;;;;5032914;28;20030;-62
2023/03/23 09:23:31;;;;;;;23.70;5.32;;;12.80;99.90;;;;;;5031911;28;20499;-62
2023/03/23 09:25:57;;;;;;;29.20;5.55;;;12.90;99.90;;;;;;5031711;28;20050;-62
2023/03/23 09:28:23;;;;;;;21.38;5.60;;;12.90;99.90;;;;;;5032983;28;20103;-63
2023/03/23 09:30:49;;;;;;;27.23;6.05;;;13.00;99.90;;;;;;5033081;28;20068;-62
2023/03/23 09:33:15;;;;;;;27.95;5.68;;;13.00;99.90;;;;;;5031676;28;20044;-62
2023/03/23 09:35:41;;;;;;;28.10;5.70;;;13.00;99.90;;;;;;5033326;28;20029;-63
2023/03/23 09:38:07;;;;;;;40.63;6.78;;;13.00;99.90;;;;;;5031715;28;20047;-62
2023/03/23 09:40:33;;;;;;;29.92;6.18;;;12.90;99.90;;;;;;5033354;28;20128;-62
2023/03/23 09:42:59;;;;;;;99.35;11.20;;;12.80;99.90;;;;;;5031661;28;20052;-63
2023/03/23 09:45:24;;;;;;;49.33;7.95;;;12.80;99.90;;;;;;5033341;28;20045;-62
2023/03/23 09:47:50;;;;;;;26.30;5.10;;;12.70;99.90;;;;;;5036436;28;20033;-62
2023/03/23 09:50:16;;;;;;;40.17;6.55;;;12.50;99.90;;;;;;5036787;28;20044;-62
2023/03/23 09:52:42;;;;;;;32.90;6.00;;;12.40;99.90;;;;;;5036799;28;20469;-63
2023/03/23 09:55:08;;;;;;;37.42;5.88;;;12.40;99.90;;;;;;5036371;28;20036;-63
2023/03/23 09:57:34;;;;;;;27.77;4.90;;;12.60;99.90;;;;;;5035674;28;20128;-62
2023/03/23 09:59:59;;;;;;;34.30;6.15;;;12.70;99.90;;;;;;5036481;28;20453;-62
2023/03/23 10:02:25;;;;;;;37.88;6.80;;;12.70;99.90;;;;;;5036459;28;20091;-63
2023/03/23 10:04:52;;;;;;;42.13;6.25;;;12.70;99.90;;;;;;5036580;28;20041;-63
2023/03/23 10:07:17;;;;;;;28.65;5.20;;;12.70;99.90;;;;;;5035632;28;20030;-62
2023/03/23 10:09:43;;;;;;;23.25;5.25;;;12.70;99.90;;;;;;5036254;28;20069;-63
2023/03/23 10:12:08;;;;;;;38.42;5.93;;;12.70;99.90;;;;;;5034987;28;20045;-63
2023/03/23 10:14:34;;;;;;;29.02;5.95;;;12.60;99.90;;;;;;5035093;28;20037;-63
2023/03/23 10:17:00;;;;;;;36.42;5.97;;;12.60;99.90;;;;;;5036102;28;20384;-62
2023/03/23 10:19:26;;;;;;;27.80;5.63;;;12.50;99.90;;;;;;5036156;28;20096;-63
2023/03/23 10:21:52;;;;;;;39.05;7.93;;;12.50;99.90;;;;;;5036507;28;20416;-63
2023/03/23 10:24:18;;;;;;;85.85;41.65;;;12.60;99.90;;;;;;5035063;28;20037;-63
2023/03/23 10:26:43;;;;;;;36.40;6.10;;;12.70;99.90;;;;;;5035540;28;20058;-62
2023/03/23 10:29:10;;;;;;;28.40;5.75;;;12.80;99.90;;;;;;5034929;28;20061;-63
2023/03/23 10:31:36;;;;;;;25.90;5.18;;;12.90;99.90;;;;;;5034424;28;20642;-63
2023/03/23 10:34:01;;;;;;;21.75;4.95;;;12.90;99.90;;;;;;5034389;28;20086;-63
2023/03/23 10:36:28;;;;;;;19.75;4.25;;;12.80;99.90;;;;;;5035666;28;20068;-63
2023/03/23 10:38:54;;;;;;;24.63;4.53;;;12.70;99.90;;;;;;5035479;28;20156;-63
2023/03/23 10:41:20;;;;;;;25.40;5.50;;;12.70;99.90;;;;;;5035634;28;20080;-63
2023/03/23 10:43:50;;;;;;;27.55;5.60;;;12.70;99.90;;;;;;5034750;28;20369;-63
2023/03/23 10:46:18;;;;;;;20.40;4.53;;;12.70;99.90;;;;;;5034094;28;20041;-64
2023/03/23 10:48:44;;;;;;;20.02;4.53;;;12.70;99.90;;;;;;5034186;28;20033;-63
2023/03/23 10:51:10;;;;;;;23.90;4.22;;;12.60;99.90;;;;;;5035574;28;20030;-63
2023/03/23 10:53:36;;;;;;;20.05;4.25;;;12.50;99.90;;;;;;5035735;28;20151;-63
2023/03/23 10:56:01;;;;;;;20.00;4.20;;;12.40;99.90;;;;;;5033650;28;20037;-63
2023/03/23 10:58:29;;;;;;;20.30;4.05;;;12.30;99.90;;;;;;5033912;28;20472;-63
2023/03/23 11:00:55;;;;;;;20.02;4.70;;;12.10;99.90;;;;;;5035489;28;20380;-62
2023/03/23 11:03:21;;;;;;;18.25;4.25;;;11.90;99.90;;;;;;5035129;28;20034;-62
2023/03/23 11:05:46;;;;;;;20.40;4.30;;;11.80;99.90;;;;;;5034242;28;20132;-63
2023/03/23 11:08:12;;;;;;;22.17;4.82;;;11.90;99.90;;;;;;5034503;28;20056;-63
2023/03/23 11:10:37;;;;;;;29.48;5.63;;;12.00;99.90;;;;;;5034338;28;20037;-63
2023/03/23 11:13:04;;;;;;;23.38;4.80;;;12.00;99.90;;;;;;5033437;28;20580;-63
2023/03/23 11:15:30;;;;;;;19.60;5.10;;;12.10;99.90;;;;;;5035061;28;20061;-63
2023/03/23 11:17:56;;;;;;;30.40;5.63;;;12.30;99.90;;;;;;5033981;28;20064;-63
2023/03/23 11:20:21;;;;;;;21.17;4.53;;;12.50;99.90;;;;;;5035315;28;20410;-63
2023/03/23 11:22:47;;;;;;;23.98;4.78;;;12.50;99.90;;;;;;5034706;28;20092;-63
2023/03/23 11:25:13;;;;;;;24.58;5.07;;;12.60;99.90;;;;;;5033192;28;20045;-63
2023/03/23 11:27:38;;;;;;;20.73;5.63;;;12.60;99.90;;;;;;5033818;28;20472;-63
2023/03/23 11:30:04;;;;;;;26.15;5.30;;;12.70;99.90;;;;;;5035077;28;20114;-63
2023/03/23 11:32:31;;;;;;;20.63;4.82;;;12.80;99.90;;;;;;5033571;28;20034;-63
2023/03/23 11:34:56;;;;;;;22.45;4.60;;;12.90;99.90;;;;;;5033019;28;20038;-63
2023/03/23 11:37:23;;;;;;;21.95;4.45;;;13.00;99.90;;;;;;5033713;28;20048;-63
2023/03/23 11:39:48;;;;;;;23.02;4.75;;;13.10;99.90;;;;;;5016882;28;20381;-63
2023/03/23 11:42:14;;;;;;;20.55;4.93;;;13.20;99.90;;;;;;5034660;28;20037;-63
2023/03/23 11:44:40;;;;;;;21.52;4.47;;;13.40;99.90;;;;;;5033236;28;20039;-63
2023/03/23 11:47:05;;;;;;;15.93;4.25;;;13.50;99.90;;;;;;5034642;28;20400;-63
2023/03/23 11:49:31;;;;;;;19.67;4.53;;;13.60;99.90;;;;;;5034687;28;20091;-63
2023/03/23 11:51:57;;;;;;;14.32;3.97;;;13.70;99.90;;;;;;5033990;28;20046;-63
2023/03/23 11:54:22;;;;;;;17.02;4.80;;;13.70;99.90;;;;;;5033932;28;20037;-63
2023/03/23 11:56:48;;;;;;;18.80;4.60;;;13.70;99.90;;;;;;5034127;28;20117;-63
2023/03/23 11:59:14;;;;;;;25.10;4.82;;;13.80;99.90;;;;;;5033856;28;20057;-63
2023/03/23 12:01:41;;;;;;;20.17;5.03;;;13.80;99.90;;;;;;5032713;28;20070;-63
2023/03/23 12:04:06;;;;;;;28.60;5.78;;;13.70;99.90;;;;;;5033610;28;20041;-64
2023/03/23 12:06:33;;;;;;;45.35;6.28;;;13.60;99.90;;;;;;5034105;28;20042;-63
2023/03/23 12:08:58;;;;;;;47.55;6.63;;;13.50;99.90;;;;;;5032436;28;20477;-63
2023/03/23 12:11:24;;;;;;;30.30;6.28;;;13.40;99.90;;;;;;5034142;28;20044;-63
2023/03/23 12:13:53;;;;;;;26.95;6.03;;;13.40;99.90;;;;;;5032718;28;20036;-63
2023/03/23 12:16:18;;;;;;;28.65;5.80;;;13.50;99.90;;;;;;5033035;28;20175;-64
2023/03/23 12:18:44;;;;;;;25.48;5.30;;;13.40;99.90;;;;;;5032523;28;20152;-63
2023/03/23 12:21:09;;;;;;;28.30;6.97;;;13.40;99.90;;;;;;5033059;28;20037;-63
2023/03/23 12:23:35;;;;;;;26.13;6.22;;;13.40;99.90;;;;;;5032704;28;20381;-64
2023/03/23 12:26:01;;;;;;;33.92;6.82;;;13.40;99.90;;;;;;5033774;28;20142;-64
2023/03/23 12:28:27;;;;;;;30.88;6.32;;;13.50;99.90;;;;;;5034073;28;20548;-63
2023/03/23 12:30:53;;;;;;;27.90;6.70;;;13.60;99.90;;;;;;5033818;28;20121;-64
2023/03/23 12:33:18;;;;;;;28.65;6.00;;;13.70;99.90;;;;;;5032080;28;20148;-63
2023/03/23 12:35:44;;;;;;;31.48;6.95;;;13.70;99.90;;;;;;5034105;28;20048;-63
2023/03/23 12:38:10;;;;;;;32.53;6.40;;;13.70;99.90;;;;;;5032133;28;20072;-63
2023/03/23 12:40:36;;;;;;;30.60;5.72;;;13.80;99.90;;;;;;5033651;28;20029;-63
2023/03/23 12:43:02;;;;;;;25.98;5.70;;;13.90;99.90;;;;;;5033505;28;20042;-64
2023/03/23 12:45:27;;;;;;;28.63;6.00;;;13.90;99.90;;;;;;5032745;28;20370;-64
2023/03/23 12:47:53;;;;;;;25.55;5.68;;;14.00;99.90;;;;;;5016363;28;20029;-63
2023/03/23 12:50:19;;;;;;;28.38;6.18;;;14.10;99.90;;;;;;5033431;28;20038;-63
2023/03/23 12:52:45;;;;;;;30.40;6.03;;;14.20;99.90;;;;;;5033090;28;20061;-62